Accueil
METAR-TAF:

METAR-TAF

Aéroports :

Aéroport de Győr-Pér

Győr, Hongrie

latitude: 47-37-28N, longitude: 017-48-49E, altitude: 129 m

Observation

Le bulletin a été fait il y a 37 minutes, à 06:45 UTC
Vent 6 kt de sud/sud-est
Température -8°C
Humidité 92%
Pression 1035 hPa
Visibilité 10 km ou plus
pas de nuages en-dessous de 1500 mètres et pas de cumulonimbus.

METAR: LHPR 240645Z AUTO 16006KT CAVOK M08/M09 Q1035 NOSIG

Heure: 08:22 (07:22 UTC)

Prévision

Le bulletin a été fait il y a 2 heures et 7 minutes, à 05:15 UTC
Prévision valable du 24 à 06 UTC au 24 à 15 UTC
Vent 5 kt de sud/sud-est
Visibilité 10 km ou plus
pas de nuages en-dessous de 1500 mètres et pas de cumulonimbus.

TAF: LHPR 240515Z 2406/2415 16005KT CAVOK

Observations et prévisions météorologiques de plus de 4000 aéroports (messages METAR et TAF).

Les stations disponibles sont représentées par des disques jaunes et rouges sur la carte.

Passer la souris dessus pour voir le nom de la station.

Cliquer dessus pour voir les observations et prévisions météorologiques.

Pour changer de carte: cliquez sur les boutons verts avec une croix noire pour zoomer, sur le bouton vert avec un tiret pour effectuer un zoom arrière, ou sur les flèches vertes pour les cartes adjacentes.


METAR-TAF: